sensor_id;sensor_type;location;lat;lon;timestamp;P1;durP1;ratioP1;P2;durP2;ratioP2
21213;SDS011;10764;50.850;2.904;2023-10-08T00:02:46;3.22;;;2.00;;
21213;SDS011;10764;50.850;2.904;2023-10-08T00:05:13;4.40;;;2.38;;
21213;SDS011;10764;50.850;2.904;2023-10-08T00:07:43;3.10;;;1.70;;
21213;SDS011;10764;50.850;2.904;2023-10-08T00:10:09;3.85;;;2.10;;
21213;SDS011;10764;50.850;2.904;2023-10-08T00:12:36;3.25;;;2.10;;
21213;SDS011;10764;50.850;2.904;2023-10-08T00:15:03;3.27;;;1.80;;
21213;SDS011;10764;50.850;2.904;2023-10-08T00:17:33;2.88;;;1.90;;
21213;SDS011;10764;50.850;2.904;2023-10-08T00:20:00;3.85;;;2.08;;
21213;SDS011;10764;50.850;2.904;2023-10-08T00:22:27;3.63;;;2.28;;
21213;SDS011;10764;50.850;2.904;2023-10-08T00:24:57;3.28;;;2.00;;
21213;SDS011;10764;50.850;2.904;2023-10-08T00:27:24;2.70;;;1.90;;
21213;SDS011;10764;50.850;2.904;2023-10-08T00:29:51;2.67;;;1.90;;
21213;SDS011;10764;50.850;2.904;2023-10-08T00:32:18;3.77;;;2.07;;
21213;SDS011;10764;50.850;2.904;2023-10-08T00:34:45;3.47;;;2.00;;
21213;SDS011;10764;50.850;2.904;2023-10-08T00:37:13;3.85;;;2.10;;
21213;SDS011;10764;50.850;2.904;2023-10-08T00:39:43;2.90;;;2.10;;
21213;SDS011;10764;50.850;2.904;2023-10-08T00:42:12;3.15;;;2.10;;
21213;SDS011;10764;50.850;2.904;2023-10-08T00:44:39;3.08;;;2.03;;
21213;SDS011;10764;50.850;2.904;2023-10-08T00:47:17;2.73;;;1.90;;
21213;SDS011;10764;50.850;2.904;2023-10-08T00:49:47;3.58;;;2.10;;
21213;SDS011;10764;50.850;2.904;2023-10-08T00:52:21;3.78;;;2.10;;
21213;SDS011;10764;50.850;2.904;2023-10-08T00:55:05;3.40;;;1.97;;
21213;SDS011;10764;50.850;2.904;2023-10-08T00:57:35;3.60;;;2.25;;
21213;SDS011;10764;50.850;2.904;2023-10-08T01:00:06;2.67;;;1.85;;
21213;SDS011;10764;50.850;2.904;2023-10-08T01:02:41;3.05;;;2.30;;
21213;SDS011;10764;50.850;2.904;2023-10-08T01:05:27;4.07;;;2.20;;
21213;SDS011;10764;50.850;2.904;2023-10-08T01:08:14;3.65;;;2.30;;
21213;SDS011;10764;50.850;2.904;2023-10-08T01:13:58;3.45;;;2.28;;
21213;SDS011;10764;50.850;2.904;2023-10-08T01:16:25;3.80;;;2.10;;
21213;SDS011;10764;50.850;2.904;2023-10-08T01:19:00;3.90;;;2.22;;
21213;SDS011;10764;50.850;2.904;2023-10-08T01:21:30;4.13;;;2.27;;
21213;SDS011;10764;50.850;2.904;2023-10-08T01:24:06;3.80;;;2.33;;
21213;SDS011;10764;50.850;2.904;2023-10-08T01:26:33;3.40;;;2.20;;
21213;SDS011;10764;50.850;2.904;2023-10-08T01:29:09;3.40;;;2.30;;
21213;SDS011;10764;50.850;2.904;2023-10-08T01:31:38;4.70;;;2.38;;
21213;SDS011;10764;50.850;2.904;2023-10-08T01:34:05;3.08;;;2.20;;
21213;SDS011;10764;50.850;2.904;2023-10-08T01:36:34;4.22;;;2.50;;
21213;SDS011;10764;50.850;2.904;2023-10-08T01:39:02;3.28;;;2.15;;
21213;SDS011;10764;50.850;2.904;2023-10-08T01:41:29;3.42;;;2.15;;
21213;SDS011;10764;50.850;2.904;2023-10-08T01:43:56;3.15;;;2.05;;
21213;SDS011;10764;50.850;2.904;2023-10-08T01:46:25;2.92;;;2.10;;
21213;SDS011;10764;50.850;2.904;2023-10-08T01:48:52;4.15;;;2.13;;
21213;SDS011;10764;50.850;2.904;2023-10-08T01:51:35;3.10;;;1.90;;
21213;SDS011;10764;50.850;2.904;2023-10-08T01:54:05;3.47;;;2.20;;
21213;SDS011;10764;50.850;2.904;2023-10-08T01:56:38;3.60;;;2.30;;
21213;SDS011;10764;50.850;2.904;2023-10-08T01:59:09;2.90;;;2.13;;
21213;SDS011;10764;50.850;2.904;2023-10-08T02:01:38;3.55;;;2.42;;
21213;SDS011;10764;50.850;2.904;2023-10-08T02:04:05;3.83;;;2.25;;
21213;SDS011;10764;50.850;2.904;2023-10-08T02:06:34;4.15;;;2.40;;
21213;SDS011;10764;50.850;2.904;2023-10-08T02:09:02;3.72;;;2.50;;
21213;SDS011;10764;50.850;2.904;2023-10-08T02:11:47;3.33;;;2.40;;
21213;SDS011;10764;50.850;2.904;2023-10-08T02:14:17;3.72;;;1.80;;
21213;SDS011;10764;50.850;2.904;2023-10-08T02:16:45;3.35;;;2.20;;
21213;SDS011;10764;50.850;2.904;2023-10-08T02:19:12;3.13;;;2.30;;
21213;SDS011;10764;50.850;2.904;2023-10-08T02:21:40;3.85;;;2.00;;
21213;SDS011;10764;50.850;2.904;2023-10-08T02:24:08;3.42;;;2.10;;
21213;SDS011;10764;50.850;2.904;2023-10-08T02:26:37;3.57;;;2.30;;
21213;SDS011;10764;50.850;2.904;2023-10-08T02:29:05;3.33;;;2.30;;
21213;SDS011;10764;50.850;2.904;2023-10-08T02:31:41;4.53;;;2.47;;
21213;SDS011;10764;50.850;2.904;2023-10-08T02:34:10;3.53;;;2.20;;
21213;SDS011;10764;50.850;2.904;2023-10-08T02:36:39;3.58;;;2.10;;
21213;SDS011;10764;50.850;2.904;2023-10-08T02:39:10;3.10;;;2.10;;
21213;SDS011;10764;50.850;2.904;2023-10-08T02:41:49;3.40;;;2.25;;
21213;SDS011;10764;50.850;2.904;2023-10-08T02:44:16;3.50;;;2.40;;
21213;SDS011;10764;50.850;2.904;2023-10-08T02:46:44;3.53;;;2.00;;
21213;SDS011;10764;50.850;2.904;2023-10-08T02:49:14;3.17;;;2.10;;
21213;SDS011;10764;50.850;2.904;2023-10-08T02:51:53;2.78;;;2.00;;
21213;SDS011;10764;50.850;2.904;2023-10-08T02:54:21;3.67;;;2.07;;
21213;SDS011;10764;50.850;2.904;2023-10-08T02:56:59;4.35;;;2.20;;
21213;SDS011;10764;50.850;2.904;2023-10-08T02:59:30;3.10;;;2.10;;
21213;SDS011;10764;50.850;2.904;2023-10-08T03:02:09;2.80;;;2.00;;
21213;SDS011;10764;50.850;2.904;2023-10-08T03:04:45;2.95;;;2.00;;
21213;SDS011;10764;50.850;2.904;2023-10-08T03:07:13;3.60;;;2.20;;
21213;SDS011;10764;50.850;2.904;2023-10-08T03:09:59;5.00;;;2.28;;
21213;SDS011;10764;50.850;2.904;2023-10-08T03:12:45;4.15;;;2.17;;
21213;SDS011;10764;50.850;2.904;2023-10-08T03:15:13;2.73;;;2.00;;
21213;SDS011;10764;50.850;2.904;2023-10-08T03:17:55;4.28;;;2.42;;
21213;SDS011;10764;50.850;2.904;2023-10-08T03:20:24;3.97;;;2.10;;
21213;SDS011;10764;50.850;2.904;2023-10-08T03:23:11;4.18;;;2.20;;
21213;SDS011;10764;50.850;2.904;2023-10-08T03:25:54;3.85;;;2.33;;
21213;SDS011;10764;50.850;2.904;2023-10-08T03:28:37;4.20;;;2.17;;
21213;SDS011;10764;50.850;2.904;2023-10-08T03:31:07;3.53;;;2.27;;
21213;SDS011;10764;50.850;2.904;2023-10-08T03:33:45;3.35;;;2.10;;
21213;SDS011;10764;50.850;2.904;2023-10-08T03:36:18;3.53;;;2.10;;
21213;SDS011;10764;50.850;2.904;2023-10-08T03:38:48;3.60;;;2.00;;
21213;SDS011;10764;50.850;2.904;2023-10-08T03:41:25;2.90;;;1.97;;
21213;SDS011;10764;50.850;2.904;2023-10-08T03:43:56;4.57;;;2.13;;
21213;SDS011;10764;50.850;2.904;2023-10-08T03:46:39;3.30;;;2.00;;
21213;SDS011;10764;50.850;2.904;2023-10-08T03:49:09;3.53;;;2.13;;
21213;SDS011;10764;50.850;2.904;2023-10-08T03:51:49;3.78;;;2.13;;
21213;SDS011;10764;50.850;2.904;2023-10-08T03:54:19;5.50;;;3.40;;
21213;SDS011;10764;50.850;2.904;2023-10-08T03:56:56;4.55;;;2.20;;
21213;SDS011;10764;50.850;2.904;2023-10-08T03:59:24;3.75;;;2.10;;
21213;SDS011;10764;50.850;2.904;2023-10-08T04:02:01;3.95;;;2.35;;
21213;SDS011;10764;50.850;2.904;2023-10-08T04:04:48;3.07;;;2.00;;
21213;SDS011;10764;50.850;2.904;2023-10-08T04:07:18;3.83;;;2.25;;
21213;SDS011;10764;50.850;2.904;2023-10-08T04:10:04;3.35;;;2.40;;
21213;SDS011;10764;50.850;2.904;2023-10-08T04:12:52;3.88;;;2.30;;
21213;SDS011;10764;50.850;2.904;2023-10-08T04:15:19;3.50;;;2.15;;
21213;SDS011;10764;50.850;2.904;2023-10-08T04:17:46;3.20;;;2.10;;
21213;SDS011;10764;50.850;2.904;2023-10-08T04:20:18;2.85;;;2.10;;
21213;SDS011;10764;50.850;2.904;2023-10-08T04:23:05;3.40;;;2.00;;
21213;SDS011;10764;50.850;2.904;2023-10-08T04:25:44;3.05;;;2.20;;
21213;SDS011;10764;50.850;2.904;2023-10-08T04:28:13;3.60;;;2.30;;
21213;SDS011;10764;50.850;2.904;2023-10-08T04:30:43;3.80;;;2.30;;
21213;SDS011;10764;50.850;2.904;2023-10-08T04:33:11;5.47;;;2.10;;
21213;SDS011;10764;50.850;2.904;2023-10-08T04:35:42;3.67;;;2.10;;
21213;SDS011;10764;50.850;2.904;2023-10-08T04:38:22;3.47;;;2.23;;
21213;SDS011;10764;50.850;2.904;2023-10-08T04:40:55;4.18;;;2.20;;
21213;SDS011;10764;50.850;2.904;2023-10-08T04:43:28;3.90;;;2.20;;
21213;SDS011;10764;50.850;2.904;2023-10-08T04:45:57;3.88;;;2.25;;
21213;SDS011;10764;50.850;2.904;2023-10-08T04:48:25;3.45;;;2.20;;
21213;SDS011;10764;50.850;2.904;2023-10-08T04:50:56;4.00;;;2.03;;
21213;SDS011;10764;50.850;2.904;2023-10-08T04:56:04;3.45;;;2.15;;
21213;SDS011;10764;50.850;2.904;2023-10-08T04:58:39;2.92;;;2.30;;
21213;SDS011;10764;50.850;2.904;2023-10-08T05:01:07;4.40;;;2.50;;
21213;SDS011;10764;50.850;2.904;2023-10-08T05:03:53;3.30;;;2.10;;
21213;SDS011;10764;50.850;2.904;2023-10-08T05:06:25;3.85;;;2.40;;
21213;SDS011;10764;50.850;2.904;2023-10-08T05:09:02;4.60;;;2.50;;
21213;SDS011;10764;50.850;2.904;2023-10-08T05:11:56;3.58;;;2.20;;
21213;SDS011;10764;50.850;2.904;2023-10-08T05:14:37;4.55;;;2.45;;
21213;SDS011;10764;50.850;2.904;2023-10-08T05:17:22;4.33;;;2.23;;
21213;SDS011;10764;50.850;2.904;2023-10-08T05:19:49;3.70;;;2.20;;
21213;SDS011;10764;50.850;2.904;2023-10-08T05:22:42;3.83;;;2.40;;
21213;SDS011;10764;50.850;2.904;2023-10-08T05:25:22;6.75;;;2.50;;
21213;SDS011;10764;50.850;2.904;2023-10-08T05:28:01;4.38;;;2.35;;
21213;SDS011;10764;50.850;2.904;2023-10-08T05:30:36;3.30;;;2.20;;
21213;SDS011;10764;50.850;2.904;2023-10-08T05:33:03;3.85;;;2.30;;
21213;SDS011;10764;50.850;2.904;2023-10-08T05:35:45;4.03;;;2.40;;
21213;SDS011;10764;50.850;2.904;2023-10-08T05:38:13;3.50;;;2.22;;
21213;SDS011;10764;50.850;2.904;2023-10-08T05:40:57;3.47;;;2.20;;
21213;SDS011;10764;50.850;2.904;2023-10-08T05:43:33;4.82;;;2.40;;
21213;SDS011;10764;50.850;2.904;2023-10-08T05:46:08;4.07;;;2.50;;
21213;SDS011;10764;50.850;2.904;2023-10-08T05:48:47;4.72;;;2.60;;
21213;SDS011;10764;50.850;2.904;2023-10-08T05:51:37;5.07;;;2.17;;
21213;SDS011;10764;50.850;2.904;2023-10-08T05:54:17;3.67;;;1.97;;
21213;SDS011;10764;50.850;2.904;2023-10-08T05:57:03;5.17;;;2.40;;
21213;SDS011;10764;50.850;2.904;2023-10-08T05:59:44;4.28;;;2.58;;
21213;SDS011;10764;50.850;2.904;2023-10-08T06:02:24;3.72;;;2.60;;
21213;SDS011;10764;50.850;2.904;2023-10-08T06:05:13;4.07;;;2.70;;
21213;SDS011;10764;50.850;2.904;2023-10-08T06:07:51;4.18;;;2.60;;
21213;SDS011;10764;50.850;2.904;2023-10-08T06:10:23;3.40;;;2.30;;
21213;SDS011;10764;50.850;2.904;2023-10-08T06:12:59;3.58;;;2.40;;
21213;SDS011;10764;50.850;2.904;2023-10-08T06:15:40;4.22;;;2.40;;
21213;SDS011;10764;50.850;2.904;2023-10-08T06:18:15;4.00;;;2.40;;
21213;SDS011;10764;50.850;2.904;2023-10-08T06:20:45;3.55;;;2.53;;
21213;SDS011;10764;50.850;2.904;2023-10-08T06:23:12;3.95;;;2.65;;
21213;SDS011;10764;50.850;2.904;2023-10-08T06:25:46;3.43;;;2.40;;
21213;SDS011;10764;50.850;2.904;2023-10-08T06:28:20;4.75;;;2.67;;
21213;SDS011;10764;50.850;2.904;2023-10-08T06:30:47;3.97;;;2.53;;
21213;SDS011;10764;50.850;2.904;2023-10-08T06:33:16;4.88;;;2.78;;
21213;SDS011;10764;50.850;2.904;2023-10-08T06:35:43;3.63;;;2.50;;
21213;SDS011;10764;50.850;2.904;2023-10-08T06:38:28;4.30;;;2.55;;
21213;SDS011;10764;50.850;2.904;2023-10-08T06:40:59;3.53;;;2.28;;
21213;SDS011;10764;50.850;2.904;2023-10-08T06:43:27;3.95;;;2.30;;
21213;SDS011;10764;50.850;2.904;2023-10-08T06:45:54;4.25;;;2.45;;
21213;SDS011;10764;50.850;2.904;2023-10-08T06:48:25;3.75;;;2.30;;
21213;SDS011;10764;50.850;2.904;2023-10-08T06:50:52;3.67;;;2.35;;
21213;SDS011;10764;50.850;2.904;2023-10-08T06:53:34;3.75;;;2.40;;
21213;SDS011;10764;50.850;2.904;2023-10-08T06:56:01;3.28;;;2.20;;
21213;SDS011;10764;50.850;2.904;2023-10-08T06:58:31;4.05;;;2.50;;
21213;SDS011;10764;50.850;2.904;2023-10-08T07:00:58;5.50;;;2.45;;
21213;SDS011;10764;50.850;2.904;2023-10-08T07:03:31;5.55;;;2.70;;
21213;SDS011;10764;50.850;2.904;2023-10-08T07:06:00;8.65;;;3.13;;
21213;SDS011;10764;50.850;2.904;2023-10-08T07:08:30;10.52;;;3.65;;
21213;SDS011;10764;50.850;2.904;2023-10-08T07:11:01;7.20;;;2.95;;
21213;SDS011;10764;50.850;2.904;2023-10-08T07:13:35;9.93;;;3.22;;
21213;SDS011;10764;50.850;2.904;2023-10-08T07:16:03;8.50;;;2.92;;
21213;SDS011;10764;50.850;2.904;2023-10-08T07:18:37;9.20;;;3.30;;
21213;SDS011;10764;50.850;2.904;2023-10-08T07:21:05;7.37;;;3.20;;
21213;SDS011;10764;50.850;2.904;2023-10-08T07:23:38;15.25;;;4.25;;
21213;SDS011;10764;50.850;2.904;2023-10-08T07:26:38;15.30;;;4.43;;
21213;SDS011;10764;50.850;2.904;2023-10-08T07:29:07;22.73;;;5.40;;
21213;SDS011;10764;50.850;2.904;2023-10-08T07:31:38;15.15;;;4.82;;
21213;SDS011;10764;50.850;2.904;2023-10-08T07:34:09;12.68;;;4.20;;
21213;SDS011;10764;50.850;2.904;2023-10-08T07:36:42;11.32;;;4.13;;
21213;SDS011;10764;50.850;2.904;2023-10-08T07:39:10;11.10;;;3.92;;
21213;SDS011;10764;50.850;2.904;2023-10-08T07:41:57;13.90;;;4.38;;
21213;SDS011;10764;50.850;2.904;2023-10-08T07:44:26;11.90;;;3.90;;
21213;SDS011;10764;50.850;2.904;2023-10-08T07:47:03;10.48;;;3.85;;
21213;SDS011;10764;50.850;2.904;2023-10-08T07:49:31;9.43;;;4.03;;
21213;SDS011;10764;50.850;2.904;2023-10-08T07:51:58;10.32;;;3.67;;
21213;SDS011;10764;50.850;2.904;2023-10-08T07:54:26;9.13;;;3.50;;
21213;SDS011;10764;50.850;2.904;2023-10-08T07:57:01;9.18;;;3.65;;
21213;SDS011;10764;50.850;2.904;2023-10-08T07:59:45;8.32;;;3.22;;
21213;SDS011;10764;50.850;2.904;2023-10-08T08:02:14;10.45;;;3.25;;
21213;SDS011;10764;50.850;2.904;2023-10-08T08:04:44;9.80;;;3.58;;
21213;SDS011;10764;50.850;2.904;2023-10-08T08:07:13;10.23;;;3.45;;
21213;SDS011;10764;50.850;2.904;2023-10-08T08:09:43;7.72;;;3.30;;
21213;SDS011;10764;50.850;2.904;2023-10-08T08:12:17;7.68;;;3.20;;
21213;SDS011;10764;50.850;2.904;2023-10-08T08:14:45;6.70;;;3.40;;
21213;SDS011;10764;50.850;2.904;2023-10-08T08:17:14;7.45;;;3.25;;
21213;SDS011;10764;50.850;2.904;2023-10-08T08:19:42;8.13;;;3.40;;
21213;SDS011;10764;50.850;2.904;2023-10-08T08:22:14;6.85;;;3.35;;
21213;SDS011;10764;50.850;2.904;2023-10-08T08:24:48;7.35;;;3.00;;
21213;SDS011;10764;50.850;2.904;2023-10-08T08:27:28;6.32;;;3.22;;
21213;SDS011;10764;50.850;2.904;2023-10-08T08:29:59;8.38;;;3.30;;
21213;SDS011;10764;50.850;2.904;2023-10-08T08:32:37;5.97;;;3.25;;
21213;SDS011;10764;50.850;2.904;2023-10-08T08:35:10;7.85;;;3.47;;
21213;SDS011;10764;50.850;2.904;2023-10-08T08:37:37;8.18;;;3.17;;
21213;SDS011;10764;50.850;2.904;2023-10-08T08:40:06;6.22;;;3.10;;
21213;SDS011;10764;50.850;2.904;2023-10-08T08:42:47;7.03;;;3.20;;
21213;SDS011;10764;50.850;2.904;2023-10-08T08:45:21;7.03;;;3.10;;
21213;SDS011;10764;50.850;2.904;2023-10-08T08:47:51;6.72;;;3.10;;
21213;SDS011;10764;50.850;2.904;2023-10-08T08:50:18;6.95;;;3.22;;
21213;SDS011;10764;50.850;2.904;2023-10-08T08:52:47;5.85;;;3.00;;
21213;SDS011;10764;50.850;2.904;2023-10-08T08:55:14;6.35;;;3.20;;
21213;SDS011;10764;50.850;2.904;2023-10-08T08:57:44;6.55;;;2.97;;
21213;SDS011;10764;50.850;2.904;2023-10-08T09:00:13;6.65;;;3.15;;
21213;SDS011;10764;50.850;2.904;2023-10-08T09:02:43;5.97;;;3.20;;
21213;SDS011;10764;50.850;2.904;2023-10-08T09:05:15;5.72;;;3.28;;
21213;SDS011;10764;50.850;2.904;2023-10-08T09:08:03;6.47;;;3.10;;
21213;SDS011;10764;50.850;2.904;2023-10-08T09:10:32;8.27;;;3.43;;
21213;SDS011;10764;50.850;2.904;2023-10-08T09:13:04;8.73;;;3.40;;
21213;SDS011;10764;50.850;2.904;2023-10-08T09:15:34;8.57;;;3.70;;
21213;SDS011;10764;50.850;2.904;2023-10-08T09:18:02;7.47;;;3.67;;
21213;SDS011;10764;50.850;2.904;2023-10-08T09:20:31;8.52;;;3.53;;
21213;SDS011;10764;50.850;2.904;2023-10-08T09:23:13;8.23;;;3.30;;
21213;SDS011;10764;50.850;2.904;2023-10-08T09:25:44;6.60;;;3.08;;
21213;SDS011;10764;50.850;2.904;2023-10-08T09:28:15;7.18;;;2.97;;
21213;SDS011;10764;50.850;2.904;2023-10-08T09:30:43;7.00;;;3.15;;
21213;SDS011;10764;50.850;2.904;2023-10-08T09:33:12;8.80;;;3.17;;
21213;SDS011;10764;50.850;2.904;2023-10-08T09:35:42;7.27;;;3.70;;
21213;SDS011;10764;50.850;2.904;2023-10-08T09:38:10;7.10;;;3.20;;
21213;SDS011;10764;50.850;2.904;2023-10-08T09:40:41;7.27;;;3.77;;
21213;SDS011;10764;50.850;2.904;2023-10-08T09:43:10;8.32;;;3.92;;
21213;SDS011;10764;50.850;2.904;2023-10-08T09:45:41;8.17;;;3.43;;
21213;SDS011;10764;50.850;2.904;2023-10-08T09:48:15;5.80;;;3.38;;
21213;SDS011;10764;50.850;2.904;2023-10-08T09:50:45;5.63;;;3.13;;
21213;SDS011;10764;50.850;2.904;2023-10-08T09:53:14;7.15;;;3.30;;
21213;SDS011;10764;50.850;2.904;2023-10-08T09:55:52;7.20;;;3.38;;
21213;SDS011;10764;50.850;2.904;2023-10-08T09:58:25;6.63;;;3.20;;
21213;SDS011;10764;50.850;2.904;2023-10-08T10:00:54;5.85;;;2.95;;
21213;SDS011;10764;50.850;2.904;2023-10-08T10:03:24;33.40;;;30.17;;
21213;SDS011;10764;50.850;2.904;2023-10-08T10:05:53;5.00;;;2.85;;
21213;SDS011;10764;50.850;2.904;2023-10-08T10:08:25;5.22;;;3.00;;
21213;SDS011;10764;50.850;2.904;2023-10-08T10:10:58;7.18;;;3.28;;
21213;SDS011;10764;50.850;2.904;2023-10-08T10:13:29;6.63;;;3.35;;
21213;SDS011;10764;50.850;2.904;2023-10-08T10:16:09;6.90;;;3.20;;
21213;SDS011;10764;50.850;2.904;2023-10-08T10:18:37;8.20;;;3.50;;
21213;SDS011;10764;50.850;2.904;2023-10-08T10:23:40;7.57;;;3.58;;
21213;SDS011;10764;50.850;2.904;2023-10-08T10:26:29;6.30;;;3.00;;
21213;SDS011;10764;50.850;2.904;2023-10-08T10:31:53;5.60;;;2.80;;
21213;SDS011;10764;50.850;2.904;2023-10-08T10:34:22;6.10;;;3.13;;
21213;SDS011;10764;50.850;2.904;2023-10-08T10:36:54;5.40;;;3.03;;
21213;SDS011;10764;50.850;2.904;2023-10-08T10:39:25;6.75;;;3.50;;
21213;SDS011;10764;50.850;2.904;2023-10-08T10:41:55;6.40;;;3.38;;
21213;SDS011;10764;50.850;2.904;2023-10-08T10:44:33;5.28;;;3.13;;
21213;SDS011;10764;50.850;2.904;2023-10-08T10:47:05;6.38;;;3.13;;
21213;SDS011;10764;50.850;2.904;2023-10-08T10:49:45;6.95;;;3.17;;
21213;SDS011;10764;50.850;2.904;2023-10-08T10:52:23;5.32;;;2.97;;
21213;SDS011;10764;50.850;2.904;2023-10-08T10:55:11;6.70;;;3.20;;
21213;SDS011;10764;50.850;2.904;2023-10-08T10:57:42;5.67;;;3.13;;
21213;SDS011;10764;50.850;2.904;2023-10-08T11:00:11;5.97;;;3.20;;
21213;SDS011;10764;50.850;2.904;2023-10-08T11:02:56;6.73;;;3.50;;
21213;SDS011;10764;50.850;2.904;2023-10-08T11:05:32;5.20;;;3.13;;
21213;SDS011;10764;50.850;2.904;2023-10-08T11:08:04;7.85;;;3.47;;
21213;SDS011;10764;50.850;2.904;2023-10-08T11:10:36;6.07;;;3.20;;
21213;SDS011;10764;50.850;2.904;2023-10-08T11:13:05;6.00;;;3.10;;
21213;SDS011;10764;50.850;2.904;2023-10-08T11:15:41;5.07;;;2.97;;
21213;SDS011;10764;50.850;2.904;2023-10-08T11:18:10;5.78;;;3.03;;
21213;SDS011;10764;50.850;2.904;2023-10-08T11:20:42;5.72;;;3.20;;
21213;SDS011;10764;50.850;2.904;2023-10-08T11:23:30;7.90;;;3.60;;
21213;SDS011;10764;50.850;2.904;2023-10-08T11:26:08;5.60;;;3.30;;
21213;SDS011;10764;50.850;2.904;2023-10-08T11:28:37;6.10;;;3.33;;
21213;SDS011;10764;50.850;2.904;2023-10-08T11:31:12;5.32;;;3.08;;
21213;SDS011;10764;50.850;2.904;2023-10-08T11:33:41;5.68;;;3.30;;
21213;SDS011;10764;50.850;2.904;2023-10-08T11:36:09;6.63;;;3.28;;
21213;SDS011;10764;50.850;2.904;2023-10-08T11:38:55;5.77;;;2.80;;
21213;SDS011;10764;50.850;2.904;2023-10-08T11:41:32;6.07;;;3.10;;
21213;SDS011;10764;50.850;2.904;2023-10-08T11:44:16;5.15;;;2.90;;
21213;SDS011;10764;50.850;2.904;2023-10-08T11:46:46;6.05;;;3.22;;
21213;SDS011;10764;50.850;2.904;2023-10-08T11:49:18;5.28;;;3.00;;
21213;SDS011;10764;50.850;2.904;2023-10-08T11:51:45;5.55;;;3.10;;
21213;SDS011;10764;50.850;2.904;2023-10-08T11:54:12;5.80;;;3.40;;
21213;SDS011;10764;50.850;2.904;2023-10-08T11:56:41;6.50;;;3.40;;
21213;SDS011;10764;50.850;2.904;2023-10-08T11:59:09;5.35;;;3.20;;
21213;SDS011;10764;50.850;2.904;2023-10-08T12:01:36;5.65;;;3.38;;
21213;SDS011;10764;50.850;2.904;2023-10-08T12:04:04;6.30;;;3.05;;
21213;SDS011;10764;50.850;2.904;2023-10-08T12:06:40;6.57;;;3.20;;
21213;SDS011;10764;50.850;2.904;2023-10-08T12:09:13;6.50;;;3.22;;
21213;SDS011;10764;50.850;2.904;2023-10-08T12:11:40;6.15;;;3.20;;
21213;SDS011;10764;50.850;2.904;2023-10-08T12:14:08;5.97;;;3.03;;
21213;SDS011;10764;50.850;2.904;2023-10-08T12:16:37;6.65;;;3.05;;
21213;SDS011;10764;50.850;2.904;2023-10-08T12:19:06;8.43;;;3.40;;
21213;SDS011;10764;50.850;2.904;2023-10-08T12:21:42;6.85;;;3.50;;
21213;SDS011;10764;50.850;2.904;2023-10-08T12:24:14;6.63;;;3.30;;
21213;SDS011;10764;50.850;2.904;2023-10-08T12:26:41;10.90;;;3.92;;
21213;SDS011;10764;50.850;2.904;2023-10-08T12:29:12;8.90;;;3.72;;
21213;SDS011;10764;50.850;2.904;2023-10-08T12:31:45;14.00;;;4.57;;
21213;SDS011;10764;50.850;2.904;2023-10-08T12:34:14;13.00;;;4.53;;
21213;SDS011;10764;50.850;2.904;2023-10-08T12:36:43;11.35;;;4.22;;
21213;SDS011;10764;50.850;2.904;2023-10-08T12:39:12;10.70;;;4.07;;
21213;SDS011;10764;50.850;2.904;2023-10-08T12:41:42;11.18;;;4.10;;
21213;SDS011;10764;50.850;2.904;2023-10-08T12:44:11;8.93;;;3.85;;
21213;SDS011;10764;50.850;2.904;2023-10-08T12:46:39;10.50;;;4.30;;
21213;SDS011;10764;50.850;2.904;2023-10-08T12:49:09;9.10;;;3.77;;
21213;SDS011;10764;50.850;2.904;2023-10-08T12:51:36;9.50;;;4.00;;
21213;SDS011;10764;50.850;2.904;2023-10-08T12:54:07;8.35;;;3.55;;
21213;SDS011;10764;50.850;2.904;2023-10-08T12:56:38;7.50;;;3.40;;
21213;SDS011;10764;50.850;2.904;2023-10-08T12:59:12;7.75;;;3.40;;
21213;SDS011;10764;50.850;2.904;2023-10-08T13:01:48;10.02;;;3.83;;
21213;SDS011;10764;50.850;2.904;2023-10-08T13:04:21;8.13;;;3.80;;
21213;SDS011;10764;50.850;2.904;2023-10-08T13:06:55;7.93;;;3.67;;
21213;SDS011;10764;50.850;2.904;2023-10-08T13:09:29;7.60;;;3.50;;
21213;SDS011;10764;50.850;2.904;2023-10-08T13:12:03;7.30;;;3.60;;
21213;SDS011;10764;50.850;2.904;2023-10-08T13:14:31;6.72;;;3.30;;
21213;SDS011;10764;50.850;2.904;2023-10-08T13:17:02;7.75;;;3.35;;
21213;SDS011;10764;50.850;2.904;2023-10-08T13:19:29;6.68;;;3.20;;
21213;SDS011;10764;50.850;2.904;2023-10-08T13:22:00;7.97;;;3.57;;
21213;SDS011;10764;50.850;2.904;2023-10-08T13:24:28;7.57;;;3.80;;
21213;SDS011;10764;50.850;2.904;2023-10-08T13:26:55;6.23;;;3.43;;
21213;SDS011;10764;50.850;2.904;2023-10-08T13:29:25;5.82;;;3.00;;
21213;SDS011;10764;50.850;2.904;2023-10-08T13:31:59;4.97;;;2.70;;
21213;SDS011;10764;50.850;2.904;2023-10-08T13:34:27;6.20;;;3.20;;
21213;SDS011;10764;50.850;2.904;2023-10-08T13:36:54;7.03;;;3.40;;
21213;SDS011;10764;50.850;2.904;2023-10-08T13:39:22;6.53;;;3.60;;
21213;SDS011;10764;50.850;2.904;2023-10-08T13:41:49;7.35;;;3.50;;
21213;SDS011;10764;50.850;2.904;2023-10-08T13:44:19;6.28;;;2.90;;
21213;SDS011;10764;50.850;2.904;2023-10-08T13:46:56;6.72;;;3.38;;
21213;SDS011;10764;50.850;2.904;2023-10-08T13:49:26;5.30;;;3.25;;
21213;SDS011;10764;50.850;2.904;2023-10-08T13:51:53;4.83;;;2.93;;
21213;SDS011;10764;50.850;2.904;2023-10-08T13:54:24;6.28;;;3.20;;
21213;SDS011;10764;50.850;2.904;2023-10-08T13:56:56;5.18;;;3.13;;
21213;SDS011;10764;50.850;2.904;2023-10-08T13:59:25;5.70;;;3.25;;
21213;SDS011;10764;50.850;2.904;2023-10-08T14:01:59;4.75;;;2.80;;
21213;SDS011;10764;50.850;2.904;2023-10-08T14:04:28;6.82;;;2.80;;
21213;SDS011;10764;50.850;2.904;2023-10-08T14:07:05;5.55;;;3.03;;
21213;SDS011;10764;50.850;2.904;2023-10-08T14:09:32;4.75;;;2.90;;
21213;SDS011;10764;50.850;2.904;2023-10-08T14:12:06;4.93;;;2.70;;
21213;SDS011;10764;50.850;2.904;2023-10-08T14:14:34;5.47;;;2.60;;
21213;SDS011;10764;50.850;2.904;2023-10-08T14:17:02;5.82;;;2.90;;
21213;SDS011;10764;50.850;2.904;2023-10-08T14:19:36;5.35;;;3.15;;
21213;SDS011;10764;50.850;2.904;2023-10-08T14:22:13;5.45;;;2.97;;
21213;SDS011;10764;50.850;2.904;2023-10-08T14:24:41;5.13;;;2.97;;
21213;SDS011;10764;50.850;2.904;2023-10-08T14:27:12;4.80;;;3.03;;
21213;SDS011;10764;50.850;2.904;2023-10-08T14:29:42;4.53;;;2.70;;
21213;SDS011;10764;50.850;2.904;2023-10-08T14:32:17;4.70;;;2.92;;
21213;SDS011;10764;50.850;2.904;2023-10-08T14:34:44;4.70;;;2.95;;
21213;SDS011;10764;50.850;2.904;2023-10-08T14:37:14;4.60;;;2.90;;
21213;SDS011;10764;50.850;2.904;2023-10-08T14:40:00;4.63;;;2.88;;
21213;SDS011;10764;50.850;2.904;2023-10-08T14:42:47;5.35;;;2.97;;
21213;SDS011;10764;50.850;2.904;2023-10-08T14:45:31;4.50;;;2.78;;
21213;SDS011;10764;50.850;2.904;2023-10-08T14:48:03;4.22;;;2.88;;
21213;SDS011;10764;50.850;2.904;2023-10-08T14:50:38;4.40;;;3.00;;
21213;SDS011;10764;50.850;2.904;2023-10-08T14:53:05;4.40;;;2.50;;
21213;SDS011;10764;50.850;2.904;2023-10-08T14:55:32;5.57;;;3.10;;
21213;SDS011;10764;50.850;2.904;2023-10-08T14:58:04;4.03;;;2.90;;
21213;SDS011;10764;50.850;2.904;2023-10-08T15:00:37;3.70;;;2.50;;
21213;SDS011;10764;50.850;2.904;2023-10-08T15:03:05;3.55;;;2.88;;
21213;SDS011;10764;50.850;2.904;2023-10-08T15:05:32;4.43;;;2.88;;
21213;SDS011;10764;50.850;2.904;2023-10-08T15:08:04;4.60;;;2.88;;
21213;SDS011;10764;50.850;2.904;2023-10-08T15:10:36;5.13;;;2.92;;
21213;SDS011;10764;50.850;2.904;2023-10-08T15:13:03;4.40;;;2.50;;
21213;SDS011;10764;50.850;2.904;2023-10-08T15:15:30;4.82;;;2.78;;
21213;SDS011;10764;50.850;2.904;2023-10-08T15:18:01;3.70;;;2.63;;
21213;SDS011;10764;50.850;2.904;2023-10-08T15:20:29;5.05;;;2.90;;
21213;SDS011;10764;50.850;2.904;2023-10-08T15:22:58;4.63;;;3.10;;
21213;SDS011;10764;50.850;2.904;2023-10-08T15:25:26;4.70;;;2.80;;
21213;SDS011;10764;50.850;2.904;2023-10-08T15:27:53;4.03;;;2.58;;
21213;SDS011;10764;50.850;2.904;2023-10-08T15:30:21;4.57;;;2.90;;
21213;SDS011;10764;50.850;2.904;2023-10-08T15:32:49;3.70;;;2.88;;